Time;durP1;ratioP1;P1;durP2;ratioP2;P2;SDS_P1;SDS_P2;PMS_P1;PMS_P2;Temp;Humidity;BMP_temperature;BMP_pressure;BME280_temperature;BME280_humidity;BME280_pressure;Samples;Min_cycle;Max_cycle;Signal;HPM_P1;HPM_P2
2021/08/10 00:01:35;;;;;;;;;;;24.20;68.70;;;;;;5133047;27;20375;-60
2021/08/10 00:04:03;;;;;;;;;;;24.20;68.80;;;;;;5132570;27;20007;-60
2021/08/10 00:06:30;;;;;;;;;;;24.20;68.70;;;;;;5132605;27;20084;-60
2021/08/10 00:08:57;;;;;;;;;;;24.20;68.70;;;;;;5134230;27;19991;-59
2021/08/10 00:11:24;;;;;;;;;;;24.20;68.70;;;;;;5132744;27;19961;-60
2021/08/10 00:13:51;;;;;;;;;;;24.20;68.70;;;;;;5092125;28;19928;-60
2021/08/10 00:16:18;;;;;;;;;;;24.20;68.70;;;;;;5126412;27;19923;-60
2021/08/10 00:18:45;;;;;;;;;;;24.20;68.70;;;;;;5131836;27;19927;-60
2021/08/10 00:21:12;;;;;;;;;;;24.20;68.70;;;;;;5134164;27;19962;-60
2021/08/10 00:23:39;;;;;;;;;;;24.20;68.70;;;;;;5126037;27;19924;-61
2021/08/10 00:26:06;;;;;;;;;;;24.20;68.70;;;;;;5122441;27;19923;-59
2021/08/10 00:28:33;;;;;;;;;;;24.10;68.40;;;;;;5126262;27;19923;-60
2021/08/10 00:31:00;;;;;;;;;;;24.10;68.40;;;;;;5120313;27;20035;-60
2021/08/10 00:33:27;;;;;;;;;;;24.20;68.40;;;;;;5133523;27;19966;-60
2021/08/10 00:35:54;;;;;;;;;;;24.10;68.30;;;;;;5131266;27;19928;-59
2021/08/10 00:38:21;;;;;;;;;;;24.20;68.30;;;;;;5116979;27;20018;-60
2021/08/10 00:40:49;;;;;;;;;;;24.10;68.10;;;;;;5132666;27;19974;-59
2021/08/10 00:43:31;;;;;;;;;;;24.10;68.00;;;;;;5133609;28;19924;-60
2021/08/10 00:45:58;;;;;;;;;;;24.10;68.10;;;;;;5115329;28;19924;-60
2021/08/10 00:48:25;;;;;;;;;;;24.10;68.10;;;;;;5132226;28;19930;-61
2021/08/10 00:50:53;;;;;;;;;;;24.10;68.10;;;;;;5133298;28;20440;-59
2021/08/10 00:53:20;;;;;;;;;;;24.10;68.10;;;;;;5131334;28;19959;-60
2021/08/10 00:55:47;;;;;;;;;;;24.10;68.20;;;;;;5131572;28;20348;-60
2021/08/10 00:58:15;;;;;;;;;;;24.10;68.10;;;;;;5132178;28;20379;-60
2021/08/10 01:00:42;;;;;;;;;;;24.10;68.20;;;;;;5132325;28;19929;-60
2021/08/10 01:03:11;;;;;;;;;;;24.10;68.20;;;;;;5114130;28;19930;-60
2021/08/10 01:05:40;;;;;;;;;;;24.20;68.30;;;;;;5133381;28;19931;-60
2021/08/10 01:08:36;;;;;;;;;;;24.10;68.20;;;;;;5132123;28;19927;-60
2021/08/10 01:11:03;;;;;;;;;;;24.10;68.20;;;;;;5095761;28;20424;-60
2021/08/10 01:13:33;;;;;;;;;;;24.10;68.20;;;;;;5132544;28;20545;-59
2021/08/10 01:16:12;;;;;;;;;;;24.10;68.20;;;;;;5133275;28;19966;-60
2021/08/10 01:19:08;;;;;;;;;;;24.10;68.20;;;;;;5114435;28;20002;-60
2021/08/10 01:21:37;;;;;;;;;;;24.10;68.30;;;;;;5010767;28;19932;-60
2021/08/10 01:24:08;;;;;;;;;;;24.10;68.30;;;;;;5010583;28;19926;-61
2021/08/10 01:26:44;;;;;;;;;;;24.10;68.40;;;;;;5010180;28;19976;-60
2021/08/10 01:29:14;;;;;;;;;;;24.10;68.40;;;;;;5012251;28;19983;-60
2021/08/10 01:31:42;;;;;;;;;;;24.10;68.20;;;;;;5014577;28;19975;-61
2021/08/10 01:34:18;;;;;;;;;;;24.10;68.30;;;;;;5014270;28;19929;-60
2021/08/10 01:36:46;;;;;;;;;;;24.10;68.40;;;;;;5014119;28;19926;-60
2021/08/10 01:39:13;;;;;;;;;;;24.10;68.50;;;;;;5014275;28;19925;-60
2021/08/10 01:41:41;;;;;;;;;;;24.00;68.20;;;;;;5014964;28;19980;-60
2021/08/10 01:44:09;;;;;;;;;;;24.00;68.40;;;;;;5015067;28;19960;-60
2021/08/10 01:46:36;;;;;;;;;;;24.00;68.40;;;;;;5030105;28;20432;-60
2021/08/10 01:49:04;;;;;;;;;;;24.00;68.50;;;;;;5014729;28;20012;-61
2021/08/10 01:51:32;;;;;;;;;;;24.00;68.60;;;;;;5014843;28;19929;-60
2021/08/10 01:54:01;;;;;;;;;;;24.00;68.60;;;;;;5014817;28;19974;-60
2021/08/10 01:56:29;;;;;;;;;;;24.00;68.50;;;;;;5013308;28;19925;-60
2021/08/10 01:58:58;;;;;;;;;;;23.90;68.50;;;;;;5119070;27;19927;-60
2021/08/10 02:01:26;;;;;;;;;;;23.90;68.50;;;;;;5117097;27;19959;-59
2021/08/10 02:03:53;;;;;;;;;;;23.90;68.60;;;;;;5136576;27;19947;-60
2021/08/10 02:06:20;;;;;;;;;;;23.90;68.60;;;;;;5136324;27;20406;-60
2021/08/10 02:08:48;;;;;;;;;;;23.90;68.60;;;;;;5135116;27;20394;-60
2021/08/10 02:11:16;;;;;;;;;;;23.90;68.60;;;;;;5136517;27;19930;-60
2021/08/10 02:13:44;;;;;;;;;;;23.90;68.60;;;;;;5130475;27;20329;-60
2021/08/10 02:16:11;;;;;;;;;;;23.90;68.50;;;;;;5122737;27;19973;-60
2021/08/10 02:18:39;;;;;;;;;;;23.90;68.50;;;;;;5134665;27;19968;-60
2021/08/10 02:21:17;;;;;;;;;;;23.90;68.50;;;;;;5134821;27;19924;-60
2021/08/10 02:23:46;;;;;;;;;;;23.90;68.50;;;;;;5133291;27;19999;-60
2021/08/10 02:26:13;;;;;;;;;;;23.80;68.50;;;;;;5119121;27;20329;-59
2021/08/10 02:28:45;;;;;;;;;;;23.90;68.60;;;;;;5115835;27;19934;-60
2021/08/10 02:31:12;;;;;;;;;;;23.80;68.50;;;;;;5135748;27;19928;-60
2021/08/10 02:33:39;;;;;;;;;;;23.80;68.60;;;;;;5136209;27;20272;-60
2021/08/10 02:36:07;;;;;;;;;;;23.80;68.50;;;;;;5136319;27;19963;-59
2021/08/10 02:38:35;;;;;;;;;;;23.80;68.60;;;;;;5135798;27;19976;-60
2021/08/10 02:41:03;;;;;;;;;;;23.80;68.60;;;;;;5134878;27;20378;-60
2021/08/10 02:43:30;;;;;;;;;;;23.80;68.60;;;;;;5135581;27;19978;-60
2021/08/10 02:45:57;;;;;;;;;;;23.80;68.60;;;;;;5116441;27;19935;-60
2021/08/10 02:48:29;;;;;;;;;;;23.80;68.50;;;;;;5134555;27;20003;-60
2021/08/10 02:50:56;;;;;;;;;;;23.80;68.50;;;;;;5135422;27;20006;-60
2021/08/10 02:53:23;;;;;;;;;;;23.80;68.50;;;;;;5135717;27;19962;-60
2021/08/10 02:55:56;;;;;;;;;;;23.70;68.40;;;;;;5135199;27;19930;-61
2021/08/10 02:58:25;;;;;;;;;;;23.70;68.40;;;;;;5133988;27;19968;-60
2021/08/10 03:00:54;;;;;;;;;;;23.70;69.20;;;;;;5121064;27;19976;-60
2021/08/10 03:03:25;;;;;;;;;;;23.70;68.50;;;;;;5118560;27;19927;-59
2021/08/10 03:05:56;;;;;;;;;;;23.70;68.40;;;;;;5118586;27;19923;-60
2021/08/10 03:08:25;;;;;;;;;;;23.70;68.40;;;;;;5130023;27;19924;-60
2021/08/10 03:10:53;;;;;;;;;;;23.70;68.40;;;;;;5133905;27;20320;-59
2021/08/10 03:13:21;;;;;;;;;;;23.70;68.50;;;;;;5133837;27;20025;-59
2021/08/10 03:15:49;;;;;;;;;;;23.70;68.50;;;;;;5134176;27;20435;-60
2021/08/10 03:18:16;;;;;;;;;;;23.70;68.40;;;;;;5133894;27;19923;-60
2021/08/10 03:20:43;;;;;;;;;;;23.70;68.50;;;;;;5133737;27;19962;-60
2021/08/10 03:23:15;;;;;;;;;;;23.70;68.40;;;;;;5133796;27;19974;-60
2021/08/10 03:25:43;;;;;;;;;;;23.70;68.40;;;;;;5133646;27;20336;-60
2021/08/10 03:28:12;;;;;;;;;;;23.60;68.30;;;;;;5133198;27;19967;-59
2021/08/10 03:30:40;;;;;;;;;;;23.60;68.20;;;;;;5134937;27;19966;-60
2021/08/10 03:33:07;;;;;;;;;;;23.60;68.20;;;;;;5134938;27;20350;-60
2021/08/10 03:35:34;;;;;;;;;;;23.60;68.20;;;;;;5132065;27;20391;-60
2021/08/10 03:38:01;;;;;;;;;;;23.70;68.20;;;;;;5132347;27;20000;-60
2021/08/10 03:40:28;;;;;;;;;;;23.70;68.10;;;;;;5134724;27;19928;-60
2021/08/10 03:42:56;;;;;;;;;;;23.70;68.00;;;;;;5134556;27;19923;-60
2021/08/10 03:45:26;;;;;;;;;;;23.70;68.10;;;;;;5098817;27;19946;-60
2021/08/10 03:47:53;;;;;;;;;;;23.60;67.90;;;;;;5133797;27;19946;-59
2021/08/10 03:50:20;;;;;;;;;;;23.60;68.70;;;;;;5134032;27;19923;-59
2021/08/10 03:52:48;;;;;;;;;;;23.60;67.80;;;;;;5115539;28;19973;-60
2021/08/10 03:55:16;;;;;;;;;;;23.60;67.80;;;;;;5115970;27;19924;-60
2021/08/10 03:57:46;;;;;;;;;;;23.60;67.90;;;;;;5133772;27;19923;-60
2021/08/10 04:00:13;;;;;;;;;;;23.60;67.90;;;;;;5116804;27;19928;-59
2021/08/10 04:02:41;;;;;;;;;;;23.60;67.80;;;;;;5117455;27;20287;-60
2021/08/10 04:05:10;;;;;;;;;;;23.60;67.80;;;;;;5116166;27;19924;-60
2021/08/10 04:07:39;;;;;;;;;;;23.60;67.80;;;;;;5129458;27;19935;-60
2021/08/10 04:10:06;;;;;;;;;;;23.60;67.80;;;;;;5133810;27;19927;-60
2021/08/10 04:12:33;;;;;;;;;;;23.60;67.80;;;;;;5133093;27;19924;-60
2021/08/10 04:15:00;;;;;;;;;;;23.60;67.70;;;;;;5114710;27;19953;-60
2021/08/10 04:17:30;;;;;;;;;;;23.60;67.70;;;;;;5132992;27;19962;-60
2021/08/10 04:19:59;;;;;;;;;;;23.50;67.60;;;;;;5133832;27;20379;-60
2021/08/10 04:22:26;;;;;;;;;;;23.60;67.70;;;;;;5132675;27;19927;-60
2021/08/10 04:24:53;;;;;;;;;;;23.60;67.60;;;;;;5132567;27;19923;-60
2021/08/10 04:27:20;;;;;;;;;;;23.60;67.70;;;;;;5131055;27;19972;-60
2021/08/10 04:29:47;;;;;;;;;;;23.60;67.60;;;;;;5133852;27;20290;-59
2021/08/10 04:32:14;;;;;;;;;;;23.60;68.30;;;;;;5133635;27;19923;-59
2021/08/10 04:34:41;;;;;;;;;;;23.50;67.40;;;;;;5132246;27;19927;-60
2021/08/10 04:37:07;;;;;;;;;;;23.60;67.50;;;;;;5132200;27;19924;-60
2021/08/10 04:39:34;;;;;;;;;;;23.60;67.50;;;;;;5133845;27;20035;-60
2021/08/10 04:42:01;;;;;;;;;;;23.50;67.40;;;;;;5132454;28;19930;-59
2021/08/10 04:44:31;;;;;;;;;;;23.60;67.50;;;;;;5133576;28;19923;-61
2021/08/10 04:46:58;;;;;;;;;;;23.60;67.40;;;;;;5114445;28;20424;-59
2021/08/10 04:49:25;;;;;;;;;;;23.50;67.30;;;;;;5131369;28;19961;-59
2021/08/10 04:51:52;;;;;;;;;;;23.50;67.20;;;;;;5115694;28;19923;-60
2021/08/10 04:54:19;;;;;;;;;;;23.60;67.30;;;;;;5133586;28;20011;-59
2021/08/10 04:56:46;;;;;;;;;;;23.60;68.00;;;;;;5133183;28;19923;-59
2021/08/10 04:59:13;;;;;;;;;;;23.60;67.20;;;;;;5133412;28;19968;-59
2021/08/10 05:01:44;;;;;;;;;;;23.60;67.10;;;;;;5117239;28;19974;-60
2021/08/10 05:04:11;;;;;;;;;;;23.60;67.10;;;;;;5132371;27;19927;-60
2021/08/10 05:06:38;;;;;;;;;;;23.60;67.00;;;;;;5137816;27;19927;-61
2021/08/10 05:09:08;;;;;;;;;;;23.60;67.00;;;;;;5123981;27;19928;-59
2021/08/10 05:11:35;;;;;;;;;;;23.70;67.10;;;;;;5129729;27;19930;-60
2021/08/10 05:14:02;;;;;;;;;;;23.60;67.00;;;;;;5136529;27;19998;-59
2021/08/10 05:16:29;;;;;;;;;;;23.70;67.00;;;;;;5137337;27;19973;-60
2021/08/10 05:18:56;;;;;;;;;;;23.70;66.90;;;;;;5136511;27;20343;-59
2021/08/10 05:21:23;;;;;;;;;;;23.70;66.80;;;;;;5136101;27;19924;-60
2021/08/10 05:23:50;;;;;;;;;;;23.80;66.80;;;;;;5136162;27;20286;-59
2021/08/10 05:26:17;;;;;;;;;;;23.80;66.70;;;;;;5134874;27;19935;-59
2021/08/10 05:28:44;;;;;;;;;;;23.90;66.80;;;;;;5136019;27;19925;-59
2021/08/10 05:31:12;;;;;;;;;;;23.90;66.50;;;;;;5136061;27;19939;-59
2021/08/10 05:33:39;;;;;;;;;;;23.90;66.60;;;;;;5137504;27;19932;-59
2021/08/10 05:36:06;;;;;;;;;;;23.90;66.60;;;;;;5136944;27;20375;-60
2021/08/10 05:38:33;;;;;;;;;;;23.90;66.50;;;;;;5136009;27;19963;-59
2021/08/10 05:41:00;;;;;;;;;;;23.90;66.50;;;;;;5136961;27;19953;-59
2021/08/10 05:43:27;;;;;;;;;;;23.90;66.40;;;;;;5119179;27;19923;-60
2021/08/10 05:45:54;;;;;;;;;;;24.00;66.40;;;;;;5119003;27;19938;-59
2021/08/10 05:48:23;;;;;;;;;;;24.00;66.20;;;;;;5137307;27;20256;-60
2021/08/10 05:50:50;;;;;;;;;;;24.00;66.20;;;;;;5137231;27;19930;-60
2021/08/10 05:53:17;;;;;;;;;;;24.00;66.10;;;;;;5118552;27;20444;-60
2021/08/10 05:55:44;;;;;;;;;;;24.00;66.00;;;;;;5134095;27;20350;-60
2021/08/10 05:58:11;;;;;;;;;;;24.10;66.20;;;;;;5103180;28;19928;-59
2021/08/10 06:00:38;;;;;;;;;;;24.10;66.20;;;;;;5132693;27;20289;-60
2021/08/10 06:03:05;;;;;;;;;;;24.10;66.10;;;;;;5134342;27;19975;-60
2021/08/10 06:05:32;;;;;;;;;;;24.10;66.10;;;;;;5134911;27;20431;-59
2021/08/10 06:08:00;;;;;;;;;;;24.00;66.10;;;;;;5135641;27;19923;-60
2021/08/10 06:10:27;;;;;;;;;;;24.10;66.20;;;;;;5135204;27;19923;-60
2021/08/10 06:12:55;;;;;;;;;;;24.10;66.20;;;;;;5135453;27;19930;-59
2021/08/10 06:15:21;;;;;;;;;;;24.10;66.20;;;;;;5134369;27;20015;-60
2021/08/10 06:17:48;;;;;;;;;;;24.10;66.20;;;;;;5133975;27;19931;-60
2021/08/10 06:20:15;;;;;;;;;;;24.10;66.10;;;;;;5133899;27;20333;-60
2021/08/10 06:22:42;;;;;;;;;;;24.10;66.10;;;;;;5136350;27;19988;-60
2021/08/10 06:25:10;;;;;;;;;;;24.10;66.10;;;;;;5135944;27;19976;-60
2021/08/10 06:27:37;;;;;;;;;;;24.10;66.00;;;;;;5133217;27;19946;-61
2021/08/10 06:30:05;;;;;;;;;;;24.10;65.90;;;;;;5134608;27;20010;-60
2021/08/10 06:32:32;;;;;;;;;;;24.10;65.90;;;;;;5136159;27;20351;-59
2021/08/10 06:34:59;;;;;;;;;;;24.20;65.90;;;;;;5134417;27;19965;-60
2021/08/10 06:37:26;;;;;;;;;;;24.20;65.80;;;;;;5136253;27;19971;-60
2021/08/10 06:39:53;;;;;;;;;;;24.20;65.70;;;;;;5116712;27;19923;-60
2021/08/10 06:42:20;;;;;;;;;;;24.20;65.70;;;;;;5118056;27;19924;-60
2021/08/10 06:44:48;;;;;;;;;;;24.20;65.80;;;;;;5134478;27;19972;-60
2021/08/10 06:47:15;;;;;;;;;;;24.20;65.80;;;;;;5133970;27;20436;-60
2021/08/10 06:49:42;;;;;;;;;;;24.30;65.70;;;;;;5134161;27;19927;-60
2021/08/10 06:52:10;;;;;;;;;;;24.30;65.60;;;;;;5115332;27;19970;-60
2021/08/10 06:54:37;;;;;;;;;;;24.30;65.50;;;;;;5117078;27;20018;-59
2021/08/10 06:57:07;;;;;;;;;;;24.30;65.20;;;;;;5135170;27;19923;-60
2021/08/10 06:59:35;;;;;;;;;;;24.30;65.20;;;;;;5134378;27;20268;-60
2021/08/10 07:02:03;;;;;;;;;;;24.30;65.10;;;;;;5134383;27;19951;-60
2021/08/10 07:04:31;;;;;;;;;;;24.40;65.20;;;;;;5134532;27;20316;-60
2021/08/10 07:07:01;;;;;;;;;;;24.40;65.20;;;;;;5133650;27;19924;-59
2021/08/10 07:09:28;;;;;;;;;;;24.40;65.00;;;;;;5134088;27;19927;-60
2021/08/10 07:11:55;;;;;;;;;;;24.50;65.00;;;;;;5116020;27;19924;-60
2021/08/10 07:14:23;;;;;;;;;;;24.40;64.90;;;;;;5134046;27;19927;-60
2021/08/10 07:16:50;;;;;;;;;;;24.50;64.90;;;;;;5126600;27;19931;-60
2021/08/10 07:19:17;;;;;;;;;;;24.50;64.80;;;;;;5124197;27;19924;-59
2021/08/10 07:21:44;;;;;;;;;;;24.50;64.80;;;;;;5133562;27;19972;-60
2021/08/10 07:24:11;;;;;;;;;;;24.50;64.70;;;;;;5135248;27;19973;-60
2021/08/10 07:26:38;;;;;;;;;;;24.50;64.80;;;;;;5129472;27;19959;-60
2021/08/10 07:29:05;;;;;;;;;;;24.50;64.80;;;;;;5118508;27;19973;-60
2021/08/10 07:31:32;;;;;;;;;;;24.50;64.80;;;;;;5134597;27;19972;-60
2021/08/10 07:33:59;;;;;;;;;;;24.60;64.90;;;;;;5133521;27;20325;-60
2021/08/10 07:36:26;;;;;;;;;;;24.60;64.90;;;;;;5133266;27;19924;-60
2021/08/10 07:38:53;;;;;;;;;;;24.60;64.90;;;;;;5116530;27;19923;-60
2021/08/10 07:41:20;;;;;;;;;;;24.60;64.90;;;;;;5116475;27;19976;-59
2021/08/10 07:43:47;;;;;;;;;;;24.60;64.90;;;;;;5134653;27;20428;-60
2021/08/10 07:46:13;;;;;;;;;;;24.60;64.90;;;;;;5117854;27;19924;-60
2021/08/10 07:48:41;;;;;;;;;;;24.60;65.00;;;;;;5132110;27;20332;-60
2021/08/10 07:51:07;;;;;;;;;;;24.60;65.00;;;;;;5134638;27;19970;-61
2021/08/10 07:53:34;;;;;;;;;;;24.70;65.00;;;;;;5132784;27;20371;-60
2021/08/10 07:56:02;;;;;;;;;;;24.70;65.00;;;;;;5132759;27;19927;-60
2021/08/10 07:58:29;;;;;;;;;;;24.70;65.20;;;;;;5113167;27;19930;-59
2021/08/10 08:00:56;;;;;;;;;;;24.70;65.30;;;;;;5132705;27;20389;-60
2021/08/10 08:03:23;;;;;;;;;;;24.70;65.20;;;;;;5132538;27;19923;-60
2021/08/10 08:05:51;;;;;;;;;;;24.80;65.30;;;;;;5134377;27;19923;-60
2021/08/10 08:08:18;;;;;;;;;;;24.80;65.30;;;;;;5131516;27;19931;-60
2021/08/10 08:10:45;;;;;;;;;;;24.80;65.10;;;;;;5132399;27;19927;-59
2021/08/10 08:13:22;;;;;;;;;;;24.80;65.40;;;;;;5134338;27;20294;-60
2021/08/10 08:15:48;;;;;;;;;;;24.80;65.20;;;;;;5134185;27;20000;-59
2021/08/10 08:18:17;;;;;;;;;;;24.80;65.20;;;;;;5131628;27;20337;-59
2021/08/10 08:20:48;;;;;;;;;;;24.90;65.40;;;;;;5132429;27;19923;-60
2021/08/10 08:23:15;;;;;;;;;;;24.90;65.40;;;;;;5133759;27;19976;-61
2021/08/10 08:25:42;;;;;;;;;;;24.90;65.30;;;;;;5133686;27;20039;-60
2021/08/10 08:28:10;;;;;;;;;;;24.90;65.50;;;;;;5132372;27;19924;-60
2021/08/10 08:30:41;;;;;;;;;;;24.90;65.70;;;;;;5134001;27;20302;-60
2021/08/10 08:33:08;;;;;;;;;;;24.90;65.60;;;;;;5132343;27;20441;-60
2021/08/10 08:35:37;;;;;;;;;;;24.90;65.20;;;;;;5132160;27;19973;-62
2021/08/10 08:38:05;;;;;;;;;;;25.00;65.70;;;;;;5115072;27;19923;-60
2021/08/10 08:40:35;;;;;;;;;;;25.00;65.40;;;;;;5116062;27;19958;-59
2021/08/10 08:43:03;;;;;;;;;;;25.00;65.70;;;;;;5133906;27;19927;-60
2021/08/10 08:45:30;;;;;;;;;;;25.00;66.10;;;;;;5132986;28;19976;-60
2021/08/10 08:47:57;;;;;;;;;;;25.00;65.70;;;;;;5132230;28;19923;-61
2021/08/10 08:50:26;;;;;;;;;;;25.00;65.60;;;;;;5132854;28;19984;-59
2021/08/10 08:52:55;;;;;;;;;;;25.00;65.70;;;;;;5132166;28;20428;-60
2021/08/10 08:55:22;;;;;;;;;;;25.10;65.80;;;;;;5132109;28;19928;-60
2021/08/10 08:57:49;;;;;;;;;;;25.10;65.90;;;;;;5130592;28;20443;-60
2021/08/10 09:00:18;;;;;;;;;;;25.10;65.50;;;;;;5130748;28;19924;-60
2021/08/10 09:02:46;;;;;;;;;;;25.10;66.40;;;;;;5133390;28;19976;-60
2021/08/10 09:05:14;;;;;;;;;;;25.10;65.90;;;;;;5132313;28;19923;-59
2021/08/10 09:07:41;;;;;;;;;;;25.20;65.90;;;;;;5133086;28;19968;-60
2021/08/10 09:10:10;;;;;;;;;;;25.10;66.20;;;;;;5133403;28;20369;-60
2021/08/10 09:12:56;;;;;;;;;;;25.10;66.10;;;;;;5131573;28;19968;-60
2021/08/10 09:15:31;;;;;;;;;;;25.20;66.10;;;;;;5133022;28;20398;-60
2021/08/10 09:18:07;;;;;;;;;;;25.20;66.40;;;;;;5121554;28;19924;-60
2021/08/10 09:20:34;;;;;;;;;;;25.20;66.30;;;;;;5126816;28;19927;-59
2021/08/10 09:23:01;;;;;;;;;;;25.20;66.30;;;;;;5133169;28;19928;-60
2021/08/10 09:25:28;;;;;;;;;;;25.20;65.90;;;;;;5121655;28;19924;-59
2021/08/10 09:28:08;;;;;;;;;;;25.30;66.30;;;;;;5115645;28;20038;-61
2021/08/10 09:30:35;;;;;;;;;;;25.30;66.60;;;;;;5124246;28;19945;-59
2021/08/10 09:33:04;;;;;;;;;;;25.30;66.30;;;;;;5122901;28;19924;-60
2021/08/10 09:35:32;;;;;;;;;;;25.30;66.80;;;;;;5122682;28;19972;-59
2021/08/10 09:38:10;;;;;;;;;;;25.30;66.80;;;;;;5130290;28;20383;-60
2021/08/10 09:40:42;;;;;;;;;;;25.30;67.30;;;;;;5133230;28;19923;-59
2021/08/10 09:43:20;;;;;;;;;;;25.30;66.80;;;;;;5130647;28;20345;-60
2021/08/10 09:45:48;;;;;;;;;;;25.30;67.20;;;;;;5125086;28;20347;-59
2021/08/10 09:48:16;;;;;;;;;;;25.40;66.90;;;;;;5121979;28;19930;-59
2021/08/10 09:50:43;;;;;;;;;;;25.40;67.10;;;;;;5136060;27;19972;-60
2021/08/10 09:53:20;;;;;;;;;;;25.40;66.90;;;;;;5134432;27;19976;-60
2021/08/10 09:55:57;;;;;;;;;;;25.40;66.40;;;;;;5136475;27;19970;-60
2021/08/10 09:58:24;;;;;;;;;;;25.40;66.80;;;;;;5136211;27;20394;-60
2021/08/10 10:00:52;;;;;;;;;;;25.40;66.70;;;;;;5118634;27;19966;-60
2021/08/10 10:03:19;;;;;;;;;;;25.50;67.80;;;;;;5135181;27;19955;-59
2021/08/10 10:05:47;;;;;;;;;;;25.40;67.10;;;;;;5136713;27;19946;-60
2021/08/10 10:08:20;;;;;;;;;;;25.50;67.70;;;;;;5132696;27;19972;-60
2021/08/10 10:10:48;;;;;;;;;;;25.50;67.20;;;;;;5119231;27;19953;-59
2021/08/10 10:13:16;;;;;;;;;;;25.50;67.40;;;;;;5136152;27;19959;-59
2021/08/10 10:15:43;;;;;;;;;;;25.50;68.10;;;;;;5133663;27;20006;-59
2021/08/10 10:18:11;;;;;;;;;;;25.50;68.20;;;;;;5136298;27;19996;-59
2021/08/10 10:20:45;;;;;;;;;;;25.60;67.90;;;;;;5118314;27;19969;-60
2021/08/10 10:23:16;;;;;;;;;;;25.60;67.90;;;;;;5117327;27;19970;-60
2021/08/10 10:25:44;;;;;;;;;;;25.60;68.10;;;;;;5134358;27;19968;-59
2021/08/10 10:28:13;;;;;;;;;;;25.60;68.00;;;;;;5116574;27;19927;-59
2021/08/10 10:30:40;;;;;;;;;;;25.60;68.20;;;;;;5134606;27;20286;-59
2021/08/10 10:33:07;;;;;;;;;;;25.60;68.40;;;;;;5134136;27;20004;-59
2021/08/10 10:35:34;;;;;;;;;;;25.60;67.80;;;;;;5117932;27;19959;-59
2021/08/10 10:38:02;;;;;;;;;;;25.60;68.90;;;;;;5133770;27;19924;-59
2021/08/10 10:40:29;;;;;;;;;;;25.60;68.50;;;;;;5115047;27;19967;-60
2021/08/10 10:42:56;;;;;;;;;;;25.60;68.30;;;;;;5135938;27;19930;-60
2021/08/10 10:45:30;;;;;;;;;;;25.60;68.30;;;;;;5134303;27;19971;-60
2021/08/10 10:47:57;;;;;;;;;;;25.70;68.30;;;;;;5116101;27;20436;-59
2021/08/10 10:50:24;;;;;;;;;;;25.70;68.20;;;;;;5115281;27;19988;-60
2021/08/10 10:52:58;;;;;;;;;;;25.70;68.00;;;;;;5135635;27;19969;-59
2021/08/10 10:55:35;;;;;;;;;;;25.70;68.00;;;;;;5135344;27;20010;-60
2021/08/10 10:58:23;;;;;;;;;;;25.70;68.00;;;;;;5135078;27;19923;-60
2021/08/10 11:01:10;;;;;;;;;;;25.70;68.10;;;;;;5120312;27;19966;-59
2021/08/10 11:03:37;;;;;;;;;;;25.70;68.50;;;;;;5119340;27;20295;-59
2021/08/10 11:06:23;;;;;;;;;;;25.70;68.00;;;;;;5135225;27;19968;-60
2021/08/10 11:08:50;;;;;;;;;;;25.70;68.00;;;;;;5119339;27;20414;-60
2021/08/10 11:11:35;;;;;;;;;;;25.70;68.40;;;;;;5132918;27;19923;-59
2021/08/10 11:14:02;;;;;;;;;;;25.70;68.50;;;;;;5135047;27;19973;-60
2021/08/10 11:16:49;;;;;;;;;;;25.70;68.40;;;;;;5133697;27;19973;-59
2021/08/10 11:19:32;;;;;;;;;;;25.70;68.30;;;;;;5134015;27;19923;-60
2021/08/10 11:22:17;;;;;;;;;;;25.70;68.20;;;;;;5134214;27;19974;-60
2021/08/10 11:25:02;;;;;;;;;;;25.80;68.00;;;;;;5132937;27;19970;-60
2021/08/10 11:27:40;;;;;;;;;;;25.80;68.00;;;;;;5117944;27;19935;-58
2021/08/10 11:30:30;;;;;;;;;;;25.80;67.90;;;;;;5117477;27;19924;-60
2021/08/10 11:32:57;;;;;;;;;;;25.80;68.30;;;;;;5131902;27;19923;-59
2021/08/10 11:35:35;;;;;;;;;;;25.80;67.90;;;;;;5132695;27;19924;-59
2021/08/10 11:38:04;;;;;;;;;;;25.80;68.00;;;;;;5133444;27;20029;-60
2021/08/10 11:40:50;;;;;;;;;;;25.80;68.50;;;;;;5133396;27;19923;-60
2021/08/10 11:43:17;;;;;;;;;;;25.80;68.50;;;;;;5133503;27;19927;-60
2021/08/10 11:45:45;;;;;;;;;;;25.80;67.90;;;;;;5134530;27;19927;-60
2021/08/10 11:48:12;;;;;;;;;;;25.80;67.90;;;;;;5133502;27;20015;-60
2021/08/10 11:50:39;;;;;;;;;;;25.80;68.20;;;;;;5133182;27;19931;-60
2021/08/10 11:53:06;;;;;;;;;;;25.80;68.20;;;;;;5133329;27;19965;-60
2021/08/10 11:55:34;;;;;;;;;;;25.80;67.80;;;;;;5134075;27;19924;-60
2021/08/10 11:58:03;;;;;;;;;;;25.80;67.70;;;;;;5115950;27;19923;-59
2021/08/10 12:00:30;;;;;;;;;;;25.80;67.80;;;;;;5133602;27;19946;-60
2021/08/10 12:02:58;;;;;;;;;;;25.80;67.90;;;;;;5134879;27;19924;-60
2021/08/10 12:05:26;;;;;;;;;;;25.90;68.40;;;;;;5117315;28;20384;-60
2021/08/10 12:07:57;;;;;;;;;;;25.90;68.20;;;;;;5132083;27;20030;-60
2021/08/10 12:10:34;;;;;;;;;;;25.90;68.20;;;;;;5132983;27;19931;-60
2021/08/10 12:13:16;;;;;;;;;;;25.90;67.90;;;;;;5133542;27;19923;-60
2021/08/10 12:15:44;;;;;;;;;;;25.90;68.10;;;;;;5133190;27;19923;-60
2021/08/10 12:18:13;;;;;;;;;;;25.90;67.90;;;;;;5133056;27;19924;-59
2021/08/10 12:20:40;;;;;;;;;;;25.90;68.00;;;;;;5131346;27;20437;-60
2021/08/10 12:23:08;;;;;;;;;;;25.90;67.90;;;;;;5132639;27;19923;-60
2021/08/10 12:25:36;;;;;;;;;;;25.90;67.60;;;;;;5132746;27;20568;-59
2021/08/10 12:28:07;;;;;;;;;;;25.90;68.00;;;;;;5131002;27;19924;-59
2021/08/10 12:30:35;;;;;;;;;;;25.90;67.80;;;;;;5131063;27;20423;-60
2021/08/10 12:33:11;;;;;;;;;;;25.90;67.50;;;;;;5131377;27;20006;-60
2021/08/10 12:35:38;;;;;;;;;;;25.90;67.40;;;;;;5132780;27;19946;-60
2021/08/10 12:38:05;;;;;;;;;;;25.90;67.40;;;;;;5132438;27;20382;-61
2021/08/10 12:40:32;;;;;;;;;;;25.90;67.40;;;;;;5132306;27;19923;-60
2021/08/10 12:43:00;;;;;;;;;;;25.90;67.40;;;;;;5133959;27;20278;-60
2021/08/10 12:45:33;;;;;;;;;;;25.90;67.90;;;;;;5132099;27;20010;-60
2021/08/10 12:48:01;;;;;;;;;;;25.90;67.20;;;;;;5133854;27;19923;-60
2021/08/10 12:50:29;;;;;;;;;;;25.90;67.30;;;;;;5133486;27;20383;-60
2021/08/10 12:52:58;;;;;;;;;;;25.90;67.00;;;;;;5132125;28;19924;-61
2021/08/10 12:55:26;;;;;;;;;;;25.90;66.80;;;;;;5126845;28;20387;-61
2021/08/10 12:58:00;;;;;;;;;;;25.90;66.90;;;;;;5116230;28;19963;-60
2021/08/10 13:00:27;;;;;;;;;;;25.90;66.80;;;;;;5121280;28;19946;-59
2021/08/10 13:02:54;;;;;;;;;;;25.90;66.70;;;;;;5131091;28;20347;-60
2021/08/10 13:05:23;;;;;;;;;;;25.90;66.70;;;;;;5132251;28;19928;-60
2021/08/10 13:08:07;;;;;;;;;;;25.90;66.60;;;;;;5114285;28;19939;-60
2021/08/10 13:10:41;;;;;;;;;;;25.90;66.50;;;;;;5131866;28;20407;-60
2021/08/10 13:13:09;;;;;;;;;;;25.90;66.40;;;;;;5131866;28;20390;-60
2021/08/10 13:15:43;;;;;;;;;;;26.00;66.40;;;;;;5131772;28;19923;-60
2021/08/10 13:18:14;;;;;;;;;;;25.90;66.20;;;;;;5130748;28;19934;-60
2021/08/10 13:20:48;;;;;;;;;;;25.90;66.90;;;;;;5132245;28;19924;-60
2021/08/10 13:23:16;;;;;;;;;;;25.90;66.00;;;;;;5131957;28;19924;-60
2021/08/10 13:25:59;;;;;;;;;;;25.90;65.90;;;;;;5133792;27;19993;-59
2021/08/10 13:28:33;;;;;;;;;;;25.90;66.00;;;;;;5134595;27;19977;-59
2021/08/10 13:31:14;;;;;;;;;;;25.90;66.00;;;;;;5136095;27;20341;-60
2021/08/10 13:34:10;;;;;;;;;;;25.90;65.90;;;;;;5134627;27;19972;-60
2021/08/10 13:36:37;;;;;;;;;;;26.00;65.90;;;;;;5119712;27;19967;-59
2021/08/10 13:39:05;;;;;;;;;;;25.90;65.80;;;;;;5135112;27;20410;-61
2021/08/10 13:41:38;;;;;;;;;;;26.00;65.90;;;;;;5135276;27;19923;-61
2021/08/10 13:44:06;;;;;;;;;;;26.00;65.80;;;;;;5137046;27;19924;-60
2021/08/10 13:46:34;;;;;;;;;;;26.00;65.90;;;;;;5135281;27;20340;-60
2021/08/10 13:49:02;;;;;;;;;;;26.00;65.70;;;;;;5136754;27;19932;-61
2021/08/10 13:51:30;;;;;;;;;;;26.00;65.70;;;;;;5136984;27;20336;-61
2021/08/10 13:53:57;;;;;;;;;;;26.00;65.60;;;;;;5118455;27;19923;-60
2021/08/10 13:56:29;;;;;;;;;;;26.00;65.70;;;;;;5136407;27;19945;-60
2021/08/10 13:58:59;;;;;;;;;;;26.00;65.60;;;;;;5119583;27;19935;-60
2021/08/10 14:01:48;;;;;;;;;;;26.00;65.60;;;;;;5134134;27;20397;-60
2021/08/10 14:04:13;;;;;;;;;;;25.90;65.50;;;;;;5120723;27;20367;-60
2021/08/10 14:06:41;;;;;;;;;;;26.00;65.50;;;;;;5136640;27;19972;-60
2021/08/10 14:09:08;;;;;;;;;;;26.00;65.60;;;;;;5118112;27;19931;-59
2021/08/10 14:11:35;;;;;;;;;;;26.00;65.50;;;;;;5135134;27;20050;-61
2021/08/10 14:14:02;;;;;;;;;;;26.00;65.60;;;;;;5136375;27;19923;-60
2021/08/10 14:16:29;;;;;;;;;;;26.00;65.50;;;;;;5134511;27;19930;-59
2021/08/10 14:18:56;;;;;;;;;;;26.00;65.40;;;;;;5135465;27;20434;-60
2021/08/10 14:21:23;;;;;;;;;;;26.00;65.40;;;;;;5135372;27;20320;-60
2021/08/10 14:23:50;;;;;;;;;;;26.00;65.30;;;;;;5136210;27;19924;-60
2021/08/10 14:26:17;;;;;;;;;;;26.00;65.20;;;;;;5133541;27;19931;-59
2021/08/10 14:28:45;;;;;;;;;;;26.00;65.20;;;;;;5136132;27;19928;-60